Terminal Aerodrome Forecast
Issued by NWS

Home | Current Version | Previous Version | Text Only | Print | Product List | Glossary On
Versions: 1 2 3 4 5 6 7 8 9 10 11 12 13 14 15 16 17 18 19 20 21 22
000
FTUS41 KBTV 111441 AAA
TAFSLK
TAF AMD
KSLK 111441Z 1115/1212 29003KT 2SM -SHSN BR OVC015
      TEMPO 1115/1116 5SM -SHSN OVC020
     FM111600 25005KT P6SM SCT035
     FM120400 VRB03KT P6SM VCSH OVC060
     FM120600 14004KT 1SM -SN BR OVC025
     FM121000 13008KT 1SM -SN BR OVC008=

USA.gov is the U.S. government's official web portal to all federal, state and local government web resources and services.